Grand Island, Florida
Current Conditions -  °F | °C
As of 12:53 PM on Tuesday 21 Oct 2014 (Local Time) from KLEE Reporting Station
Clear Clear  
Wind Chill: 81°   Ceiling: Unl
Heat Index: 84°   Visibility: 10mi
Dew Point: 68°   Wind: 3mph
Humidity: 65%   Direction: 320°NW
Pressure: 29.97"   Gusts: NA
Location:  28.88°N, 81.73°W
Report Text: KLEE 211653Z 32003KT 10SM CLR 27/20 A2997 RMK AO2 SLP148 T02720200
Loading
Personal Weather Stations






























Interactive Weather Map
Tropical Storm Tracking
New forecast layout! Learn more

10-Day Weather Forecast

Advertisements
Track Severe Weather on mobile